Terminal Aerodrome Forecast
Issued by NWS

Home | Current Version | Previous Version | Text Only | Print | Product List | Glossary On
Versions: 1 2 3 4 5 6 7 8 9 10 11 12 13 14 15
000
FTUS45 KRIW 192300
TAFLND
TAF
KLND 192320Z 2000/2024 VRB04KT P6SM FEW100
     FM200200 25008KT P6SM SKC
     FM200900 VRB05KT P6SM FEW110=

USA.gov is the U.S. government's official web portal to all federal, state and local government web resources and services.